createdAt,value
2018-04-07T00:00:03.409Z,5.60
2018-04-07T00:02:30.956Z,5.50
2018-04-07T00:04:58.532Z,5.40
2018-04-07T00:07:26.068Z,5.40
2018-04-07T00:09:54.384Z,5.40
2018-04-07T00:12:21.910Z,5.30
2018-04-07T00:14:50.220Z,5.30
2018-04-07T00:17:17.745Z,5.20
2018-04-07T00:19:45.325Z,5.20
2018-04-07T00:22:12.873Z,5.20
2018-04-07T00:24:40.407Z,5.20
2018-04-07T00:27:08.736Z,5.10
2018-04-07T00:29:36.273Z,5.10
2018-04-07T00:32:03.846Z,5.10
2018-04-07T00:34:31.410Z,5.00
2018-04-07T00:36:58.970Z,5.00
2018-04-07T00:39:26.520Z,4.90
2018-04-07T00:41:54.081Z,4.90
2018-04-07T00:44:21.629Z,4.80
2018-04-07T00:46:49.202Z,4.80
2018-04-07T00:49:16.736Z,4.80
2018-04-07T00:51:44.295Z,4.80
2018-04-07T00:54:12.611Z,4.70
2018-04-07T00:56:40.170Z,4.70
2018-04-07T00:59:07.697Z,4.70
2018-04-07T01:01:36.019Z,4.60
2018-04-07T01:04:03.568Z,4.50
2018-04-07T01:06:33.051Z,4.60
2018-04-07T01:09:00.589Z,4.50
2018-04-07T01:11:28.908Z,4.40
2018-04-07T01:13:56.429Z,4.40
2018-04-07T01:16:24.753Z,4.50
2018-04-07T01:18:52.323Z,4.40
2018-04-07T01:21:19.881Z,4.40
2018-04-07T01:23:47.422Z,4.40
2018-04-07T01:26:14.962Z,4.40
2018-04-07T01:28:42.509Z,4.30
2018-04-07T01:31:10.039Z,4.30
2018-04-07T01:33:38.364Z,4.40
2018-04-07T01:36:05.901Z,4.40
2018-04-07T01:38:33.480Z,4.40
2018-04-07T01:41:01.027Z,4.30
2018-04-07T01:43:28.587Z,4.30
2018-04-07T01:45:56.148Z,4.20
2018-04-07T01:48:23.700Z,4.20
2018-04-07T01:50:51.247Z,4.20
2018-04-07T01:53:18.820Z,4.20
2018-04-07T01:55:46.373Z,4.20
2018-04-07T01:58:14.759Z,4.20
2018-04-07T02:00:42.360Z,4.20
2018-04-07T02:03:09.916Z,4.20
2018-04-07T02:05:37.476Z,4.20
2018-04-07T02:08:05.006Z,4.20
2018-04-07T02:10:32.565Z,4.20
2018-04-07T02:13:00.106Z,4.20
2018-04-07T02:15:28.440Z,4.50
2018-04-07T02:17:55.976Z,4.50
2018-04-07T02:20:23.525Z,4.80
2018-04-07T02:22:51.096Z,5.00
2018-04-07T02:25:18.642Z,5.20
2018-04-07T02:27:46.253Z,5.10
2018-04-07T02:30:13.790Z,5.30
2018-04-07T02:32:41.337Z,5.40
2018-04-07T02:35:08.879Z,5.40
2018-04-07T02:37:36.444Z,5.40
2018-04-07T02:40:03.985Z,5.20
2018-04-07T02:42:32.345Z,4.80
2018-04-07T02:44:59.885Z,4.70
2018-04-07T02:47:27.408Z,4.60
2018-04-07T02:49:54.973Z,4.40
2018-04-07T02:52:22.535Z,4.30
2018-04-07T02:54:50.105Z,4.30
2018-04-07T02:57:17.643Z,4.20
2018-04-07T02:59:45.220Z,4.20
2018-04-07T03:02:12.751Z,4.10
2018-04-07T03:04:40.333Z,4.00
2018-04-07T03:07:07.879Z,4.00
2018-04-07T03:09:35.441Z,3.90
2018-04-07T03:12:02.984Z,3.90
2018-04-07T03:14:31.309Z,3.90
2018-04-07T03:16:58.845Z,3.90
2018-04-07T03:19:26.401Z,3.90
2018-04-07T03:21:53.960Z,3.90
2018-04-07T03:24:21.495Z,3.90
2018-04-07T03:26:49.825Z,4.00
2018-04-07T03:29:17.381Z,4.00
2018-04-07T03:31:44.917Z,4.10
2018-04-07T03:34:12.475Z,4.20
2018-04-07T03:36:40.004Z,4.40
2018-04-07T03:39:08.339Z,4.10
2018-04-07T03:41:35.874Z,4.10
2018-04-07T03:44:03.440Z,4.20
2018-04-07T03:46:31.007Z,4.40
2018-04-07T03:48:58.540Z,4.20
2018-04-07T03:51:26.855Z,4.60
2018-04-07T03:53:54.429Z,4.60
2018-04-07T03:56:21.984Z,4.60
2018-04-07T03:58:49.686Z,4.60
2018-04-07T04:01:18.017Z,4.80
2018-04-07T04:03:45.562Z,4.80
2018-04-07T04:06:13.117Z,4.80
2018-04-07T04:08:40.651Z,4.90
2018-04-07T04:11:09.044Z,5.10
2018-04-07T04:13:36.590Z,5.10
2018-04-07T04:16:04.913Z,5.20
2018-04-07T04:18:32.484Z,5.20
2018-04-07T04:21:00.049Z,5.20
2018-04-07T04:23:27.645Z,5.20
2018-04-07T04:25:55.917Z,5.30
2018-04-07T04:28:24.231Z,5.30
2018-04-07T04:30:51.785Z,5.30
2018-04-07T04:33:19.340Z,5.30
2018-04-07T04:35:46.872Z,5.30
2018-04-07T04:38:15.186Z,5.20
2018-04-07T04:40:42.721Z,5.30
2018-04-07T04:43:11.045Z,5.30
2018-04-07T04:45:38.589Z,5.30
2018-04-07T04:48:06.148Z,5.30
2018-04-07T04:50:33.678Z,5.30
2018-04-07T04:53:01.988Z,5.20
2018-04-07T04:55:29.544Z,5.20
2018-04-07T04:57:57.081Z,5.20
2018-04-07T05:00:24.659Z,5.20
2018-04-07T05:02:52.205Z,5.20
2018-04-07T05:05:19.751Z,5.10
2018-04-07T05:07:48.061Z,5.20
2018-04-07T05:10:15.628Z,5.20
2018-04-07T05:12:43.160Z,5.30
2018-04-07T05:15:10.714Z,5.20
2018-04-07T05:17:39.037Z,4.90
2018-04-07T05:20:06.594Z,4.80
2018-04-07T05:22:34.168Z,4.80
2018-04-07T05:25:01.722Z,4.90
2018-04-07T05:27:29.285Z,5.10
2018-04-07T05:29:56.865Z,5.10
2018-04-07T05:32:24.417Z,5.00
2018-04-07T05:34:51.961Z,5.00
2018-04-07T05:37:19.550Z,5.00
2018-04-07T05:39:48.011Z,4.90
2018-04-07T05:42:15.564Z,5.00
2018-04-07T05:44:43.128Z,4.90
2018-04-07T05:47:10.676Z,5.00
2018-04-07T05:49:38.213Z,5.10
2018-04-07T05:52:05.800Z,5.40
2018-04-07T05:54:33.926Z,5.60
2018-04-07T05:57:02.258Z,5.80
2018-04-07T05:59:29.832Z,5.80
2018-04-07T06:01:57.380Z,5.90
2018-04-07T06:04:24.967Z,5.90
2018-04-07T06:06:52.500Z,5.90
2018-04-07T06:09:20.067Z,6.10
2018-04-07T06:11:47.834Z,6.40
2018-04-07T06:14:15.420Z,6.80
2018-04-07T06:16:43.712Z,7.10
2018-04-07T06:19:11.284Z,7.10
2018-04-07T06:21:38.855Z,7.60
2018-04-07T06:24:06.416Z,8.30
2018-04-07T06:26:33.959Z,8.60
2018-04-07T06:29:01.526Z,8.70
2018-04-07T06:31:29.081Z,9.20
2018-04-07T06:33:56.617Z,9.60
2018-04-07T06:36:24.990Z,11.10
2018-04-07T06:38:52.533Z,11.10
2018-04-07T06:41:20.117Z,11.80
2018-04-07T06:43:47.656Z,12.00
2018-04-07T06:46:15.241Z,12.00
2018-04-07T06:48:42.787Z,12.70
2018-04-07T06:51:10.352Z,12.70
2018-04-07T06:53:37.893Z,12.30
2018-04-07T06:56:05.444Z,12.20
2018-04-07T06:58:33.899Z,12.00
2018-04-07T07:01:02.244Z,13.40
2018-04-07T07:03:29.778Z,13.40
2018-04-07T07:05:57.348Z,13.10
2018-04-07T07:08:24.889Z,13.40
2018-04-07T07:10:52.449Z,13.90
2018-04-07T07:13:20.009Z,13.50
2018-04-07T07:15:47.574Z,12.80
2018-04-07T07:18:15.141Z,13.30
2018-04-07T07:20:42.684Z,13.70
2018-04-07T07:23:10.269Z,14.20
2018-04-07T07:25:37.824Z,14.50
2018-04-07T07:28:05.385Z,14.30
2018-04-07T07:30:32.934Z,14.80
2018-04-07T07:33:00.495Z,15.10
2018-04-07T07:35:28.045Z,16.00
2018-04-07T07:37:55.704Z,15.40
2018-04-07T07:40:24.039Z,15.20
2018-04-07T07:42:51.616Z,15.10
2018-04-07T07:45:19.160Z,15.00
2018-04-07T07:47:46.729Z,16.20
2018-04-07T07:50:15.804Z,16.20
2018-04-07T07:52:43.399Z,16.10
2018-04-07T07:55:11.703Z,17.00
2018-04-07T07:57:39.240Z,16.90
2018-04-07T08:00:06.822Z,16.80
2018-04-07T08:02:34.356Z,17.70
2018-04-07T08:05:01.929Z,20.40
2018-04-07T08:07:29.482Z,20.60
2018-04-07T08:09:57.046Z,21.50
2018-04-07T08:12:24.581Z,22.00
2018-04-07T08:14:52.923Z,22.20
2018-04-07T08:17:20.460Z,22.20
2018-04-07T08:19:48.784Z,21.40
2018-04-07T08:22:16.346Z,21.40
2018-04-07T08:24:43.917Z,22.40
2018-04-07T08:27:11.451Z,23.30
2018-04-07T08:29:39.114Z,24.10
2018-04-07T08:32:06.747Z,23.80
2018-04-07T08:34:34.210Z,24.90
2018-04-07T08:37:01.783Z,24.30
2018-04-07T08:39:29.376Z,24.70
2018-04-07T08:41:56.940Z,23.40
2018-04-07T08:44:24.482Z,24.00
2018-04-07T08:46:52.051Z,25.50
2018-04-07T08:49:19.601Z,24.00
2018-04-07T08:51:47.164Z,25.00
2018-04-07T08:54:14.791Z,25.70
2018-04-07T08:56:42.344Z,26.50
2018-04-07T08:59:09.888Z,26.90
2018-04-07T09:01:37.447Z,27.20
2018-04-07T09:04:05.012Z,27.90
2018-04-07T09:06:32.561Z,26.20
2018-04-07T09:09:00.138Z,27.00
2018-04-07T09:11:27.680Z,27.00
2018-04-07T09:13:55.993Z,24.90
2018-04-07T09:16:23.517Z,24.90
2018-04-07T09:18:51.833Z,27.20
2018-04-07T09:21:19.364Z,27.10
2018-04-07T09:23:46.913Z,25.40
2018-04-07T09:26:15.228Z,26.70
2018-04-07T09:28:42.785Z,26.70
2018-04-07T09:31:16.081Z,27.60
2018-04-07T09:33:43.640Z,27.40
2018-04-07T09:36:11.168Z,26.50
2018-04-07T09:38:40.066Z,28.00
2018-04-07T09:41:07.593Z,27.90
2018-04-07T09:43:36.629Z,28.50
2018-04-07T09:46:04.201Z,28.50
2018-04-07T09:48:31.771Z,29.20
2018-04-07T09:50:59.327Z,29.60
2018-04-07T09:53:26.871Z,29.70
2018-04-07T09:55:54.429Z,29.20
2018-04-07T09:58:21.957Z,31.50
2018-04-07T10:00:50.282Z,30.80
2018-04-07T10:03:22.649Z,30.80
2018-04-07T10:05:50.191Z,30.80
2018-04-07T10:08:17.756Z,31.00
2018-04-07T10:10:45.322Z,31.00
2018-04-07T10:13:12.867Z,33.60
2018-04-07T10:15:40.412Z,31.30
2018-04-07T10:18:10.151Z,29.90
2018-04-07T10:20:37.684Z,29.80
2018-04-07T10:23:06.004Z,30.10
2018-04-07T10:25:33.536Z,30.10
2018-04-07T10:28:01.110Z,33.30
2018-04-07T10:30:28.658Z,35.00
2018-04-07T10:32:56.201Z,35.20
2018-04-07T10:35:24.073Z,35.70
2018-04-07T10:37:51.626Z,35.70
2018-04-07T10:40:19.168Z,33.30
2018-04-07T10:42:47.594Z,34.90
2018-04-07T10:45:15.169Z,34.80
2018-04-07T10:47:44.599Z,37.20
2018-04-07T10:50:12.935Z,36.30
2018-04-07T10:52:40.588Z,36.30
2018-04-07T10:55:08.108Z,35.70
2018-04-07T10:57:36.485Z,33.90
2018-04-07T11:00:04.774Z,32.80
2018-04-07T11:02:33.061Z,32.00
2018-04-07T11:05:01.381Z,31.00
2018-04-07T11:07:28.926Z,31.00
2018-04-07T11:09:56.468Z,30.40
2018-04-07T11:12:24.001Z,30.50
2018-04-07T11:14:52.318Z,28.50
2018-04-07T11:17:19.870Z,28.40
2018-04-07T11:19:47.389Z,28.10
2018-04-07T11:22:14.946Z,27.90
2018-04-07T11:24:42.515Z,27.70
2018-04-07T11:27:10.069Z,27.80
2018-04-07T11:29:37.604Z,26.80
2018-04-07T11:32:05.124Z,26.40
2018-04-07T11:34:32.680Z,26.80
2018-04-07T11:37:00.236Z,26.60
2018-04-07T11:39:28.576Z,26.60
2018-04-07T11:41:56.107Z,26.50
2018-04-07T11:44:23.673Z,26.40
2018-04-07T11:46:51.202Z,25.40
2018-04-07T11:49:18.747Z,26.00
2018-04-07T11:51:47.058Z,25.30
2018-04-07T11:54:14.622Z,25.20
2018-04-07T11:56:42.164Z,25.80
2018-04-07T11:59:09.696Z,25.90
2018-04-07T12:01:37.257Z,26.20
2018-04-07T12:04:05.560Z,24.90
2018-04-07T12:06:33.118Z,24.80
2018-04-07T12:09:00.656Z,24.50
2018-04-07T12:11:28.235Z,24.80
2018-04-07T12:13:55.757Z,24.80
2018-04-07T12:16:23.294Z,25.00
2018-04-07T12:18:51.644Z,25.80
2018-04-07T12:21:19.160Z,25.80
2018-04-07T12:23:46.723Z,24.70
2018-04-07T12:26:14.250Z,24.30
2018-04-07T12:28:42.556Z,24.60
2018-04-07T12:31:10.119Z,24.60
2018-04-07T12:33:37.666Z,24.70
2018-04-07T12:36:05.184Z,23.80
2018-04-07T12:38:32.717Z,23.60
2018-04-07T12:41:00.270Z,23.70
2018-04-07T12:43:27.820Z,24.00
2018-04-07T12:45:55.368Z,24.80
2018-04-07T12:48:22.896Z,24.80
2018-04-07T12:50:51.236Z,25.60
2018-04-07T12:53:18.771Z,25.60
2018-04-07T12:55:46.313Z,25.10
2018-04-07T12:58:13.853Z,24.80
2018-04-07T13:00:42.168Z,24.50
2018-04-07T13:03:09.733Z,24.50
2018-04-07T13:05:37.257Z,25.00
2018-04-07T13:08:05.566Z,25.90
2018-04-07T13:10:33.122Z,25.90
2018-04-07T13:13:00.678Z,25.20
2018-04-07T13:15:28.215Z,25.50
2018-04-07T13:17:56.522Z,26.30
2018-04-07T13:20:24.094Z,26.30
2018-04-07T13:22:51.620Z,26.20
2018-04-07T13:25:19.195Z,24.90
2018-04-07T13:27:46.712Z,24.30
2018-04-07T13:30:14.267Z,24.70
2018-04-07T13:32:42.606Z,24.10
2018-04-07T13:35:10.162Z,24.10
2018-04-07T13:37:37.681Z,24.50
2018-04-07T13:40:06.019Z,24.60
2018-04-07T13:42:33.580Z,24.60
2018-04-07T13:45:01.146Z,25.40
2018-04-07T13:47:28.707Z,24.90
2018-04-07T13:49:57.000Z,25.10
2018-04-07T13:52:24.566Z,25.00
2018-04-07T13:54:52.104Z,25.20
2018-04-07T13:57:20.420Z,24.30
2018-04-07T13:59:47.963Z,24.30
2018-04-07T14:02:15.529Z,24.10
2018-04-07T14:04:43.087Z,23.30
2018-04-07T14:07:10.632Z,23.90
2018-04-07T14:09:38.153Z,23.90
2018-04-07T14:12:05.769Z,23.60
2018-04-07T14:14:33.290Z,23.90
2018-04-07T14:17:01.607Z,24.10
2018-04-07T14:19:29.148Z,24.00
2018-04-07T14:21:56.701Z,24.70
2018-04-07T14:24:24.260Z,25.30
2018-04-07T14:26:51.780Z,25.40
2018-04-07T14:29:19.329Z,25.60
2018-04-07T14:31:46.949Z,25.80
2018-04-07T14:34:14.497Z,25.40
2018-04-07T14:36:42.832Z,25.90
2018-04-07T14:39:10.360Z,25.80
2018-04-07T14:41:37.916Z,25.50
2018-04-07T14:44:05.446Z,24.70
2018-04-07T14:46:33.793Z,24.90
2018-04-07T14:49:01.330Z,24.90
2018-04-07T14:51:28.865Z,24.90
2018-04-07T14:53:56.425Z,24.60
2018-04-07T14:56:23.947Z,24.60
2018-04-07T14:58:51.676Z,24.70
2018-04-07T15:01:19.205Z,24.50
2018-04-07T15:03:47.516Z,25.00
2018-04-07T15:06:15.056Z,25.00
2018-04-07T15:08:42.612Z,24.20
2018-04-07T15:11:10.133Z,24.30
2018-04-07T15:13:38.455Z,24.70
2018-04-07T15:16:05.989Z,24.70
2018-04-07T15:18:34.319Z,24.40
2018-04-07T15:21:01.857Z,24.40
2018-04-07T15:23:29.413Z,24.70
2018-04-07T15:25:56.948Z,25.00
2018-04-07T15:28:25.296Z,24.70
2018-04-07T15:30:52.813Z,24.70
2018-04-07T15:33:20.351Z,24.60
2018-04-07T15:35:48.013Z,24.70
2018-04-07T15:38:16.388Z,24.70
2018-04-07T15:40:44.703Z,24.40
2018-04-07T15:43:12.236Z,24.30
2018-04-07T15:45:39.806Z,24.40
2018-04-07T15:48:07.340Z,24.30
2018-04-07T15:50:35.648Z,23.80
2018-04-07T15:53:03.173Z,23.80
2018-04-07T15:55:31.498Z,23.40
2018-04-07T15:57:59.036Z,23.30
2018-04-07T16:00:26.592Z,23.40
2018-04-07T16:02:54.153Z,23.50
2018-04-07T16:05:21.745Z,23.50
2018-04-07T16:07:49.316Z,23.70
2018-04-07T16:10:16.859Z,23.80
2018-04-07T16:12:44.425Z,23.80
2018-04-07T16:15:11.959Z,23.80
2018-04-07T16:17:39.507Z,23.50
2018-04-07T16:20:07.671Z,23.60
2018-04-07T16:22:35.972Z,23.20
2018-04-07T16:25:03.533Z,23.20
2018-04-07T16:27:31.064Z,23.30
2018-04-07T16:29:59.352Z,23.40
2018-04-07T16:32:26.905Z,23.30
2018-04-07T16:34:55.228Z,23.20
2018-04-07T16:37:22.766Z,23.10
2018-04-07T16:39:50.314Z,23.20
2018-04-07T16:42:17.876Z,23.20
2018-04-07T16:44:45.437Z,23.00
2018-04-07T16:47:12.961Z,23.00
2018-04-07T16:49:40.531Z,22.90
2018-04-07T16:52:10.274Z,22.70
2018-04-07T16:54:37.805Z,22.70
2018-04-07T16:57:06.100Z,22.60
2018-04-07T16:59:33.673Z,22.60
2018-04-07T17:02:02.258Z,22.40
2018-04-07T17:04:29.826Z,22.30
2018-04-07T17:06:57.392Z,22.30
2018-04-07T17:09:24.948Z,22.10
2018-04-07T17:11:52.492Z,21.90
2018-04-07T17:14:20.024Z,21.80
2018-04-07T17:16:48.338Z,21.70
2018-04-07T17:19:15.873Z,21.60
2018-04-07T17:21:44.183Z,21.30
2018-04-07T17:24:11.736Z,21.30
2018-04-07T17:26:39.271Z,21.20
2018-04-07T17:29:06.818Z,21.10
2018-04-07T17:31:35.167Z,20.70
2018-04-07T17:34:03.597Z,20.60
2018-04-07T17:36:31.136Z,20.60
2018-04-07T17:38:59.458Z,20.30
2018-04-07T17:41:27.029Z,20.30
2018-04-07T17:43:54.564Z,20.20
2018-04-07T17:46:22.111Z,20.20
2018-04-07T17:48:50.436Z,19.90
2018-04-07T17:51:18.013Z,19.90
2018-04-07T17:53:45.549Z,19.70
2018-04-07T17:56:13.094Z,19.60
2018-04-07T17:58:40.640Z,19.50
2018-04-07T18:01:08.161Z,19.30
2018-04-07T18:03:37.228Z,19.20
2018-04-07T18:06:04.797Z,19.20
2018-04-07T18:08:32.352Z,19.20
2018-04-07T18:10:59.876Z,19.00
2018-04-07T18:13:27.432Z,18.90
2018-04-07T18:15:54.964Z,18.80
2018-04-07T18:18:23.291Z,18.70
2018-04-07T18:20:50.845Z,18.70
2018-04-07T18:23:18.381Z,18.50
2018-04-07T18:25:46.041Z,18.50
2018-04-07T18:28:13.576Z,18.50
2018-04-07T18:30:41.911Z,18.40
2018-04-07T18:33:09.460Z,18.40
2018-04-07T18:35:37.019Z,18.30
2018-04-07T18:38:04.587Z,18.30
2018-04-07T18:40:32.157Z,18.30
2018-04-07T18:42:59.806Z,18.20
2018-04-07T18:45:28.165Z,18.20
2018-04-07T18:47:55.705Z,18.20
2018-04-07T18:50:23.289Z,18.10
2018-04-07T18:52:50.829Z,18.10
2018-04-07T18:55:18.364Z,18.10
2018-04-07T18:57:45.916Z,18.00
2018-04-07T19:00:13.469Z,18.00
2018-04-07T19:02:41.044Z,18.00
2018-04-07T19:05:08.588Z,17.90
2018-04-07T19:07:36.969Z,17.80
2018-04-07T19:10:05.316Z,17.80
2018-04-07T19:12:32.882Z,17.70
2018-04-07T19:15:00.436Z,17.70
2018-04-07T19:17:28.018Z,17.70
2018-04-07T19:19:55.592Z,17.60
2018-04-07T19:22:23.925Z,17.40
2018-04-07T19:24:51.483Z,17.40
2018-04-07T19:27:19.040Z,17.40
2018-04-07T19:29:46.586Z,17.40
2018-04-07T19:32:14.160Z,17.30
2018-04-07T19:34:41.720Z,17.30
2018-04-07T19:37:09.262Z,17.20
2018-04-07T19:39:36.943Z,17.20
2018-04-07T19:42:04.505Z,17.20
2018-04-07T19:44:32.081Z,17.10
2018-04-07T19:46:59.641Z,17.00
2018-04-07T19:49:27.200Z,16.90
2018-04-07T19:51:54.757Z,16.90
2018-04-07T19:54:22.309Z,16.80
2018-04-07T19:56:49.886Z,16.80
2018-04-07T19:59:17.433Z,16.60
2018-04-07T20:01:44.991Z,16.60
2018-04-07T20:04:12.558Z,16.50
2018-04-07T20:06:40.132Z,16.40
2018-04-07T20:09:07.710Z,16.20
2018-04-07T20:11:35.274Z,16.00
2018-04-07T20:14:03.592Z,15.80
2018-04-07T20:16:31.172Z,15.70
2018-04-07T20:18:58.737Z,15.70
2018-04-07T20:21:26.287Z,15.70
2018-04-07T20:23:53.860Z,15.70
2018-04-07T20:26:21.485Z,15.70
2018-04-07T20:28:49.045Z,15.70
2018-04-07T20:31:16.605Z,15.80
2018-04-07T20:33:44.158Z,15.90
2018-04-07T20:36:11.731Z,15.90
2018-04-07T20:38:39.307Z,15.90
2018-04-07T20:41:06.878Z,15.80
2018-04-07T20:43:34.469Z,15.80
2018-04-07T20:46:02.788Z,15.70
2018-04-07T20:48:30.332Z,15.70
2018-04-07T20:50:57.864Z,15.70
2018-04-07T20:53:26.201Z,15.60
2018-04-07T20:55:53.739Z,15.60
2018-04-07T20:58:21.312Z,15.50
2018-04-07T21:00:48.872Z,15.50
2018-04-07T21:03:16.412Z,15.40
2018-04-07T21:05:43.980Z,15.20
2018-04-07T21:08:11.545Z,15.00
2018-04-07T21:10:39.111Z,15.00
2018-04-07T21:13:06.660Z,14.90
2018-04-07T21:15:34.236Z,14.90
2018-04-07T21:18:01.813Z,14.90
2018-04-07T21:20:30.137Z,14.50
2018-04-07T21:22:57.712Z,14.50
2018-04-07T21:25:25.272Z,14.30
2018-04-07T21:27:52.809Z,14.20
2018-04-07T21:30:20.456Z,14.10
2018-04-07T21:32:48.006Z,13.80
2018-04-07T21:35:15.590Z,13.70
2018-04-07T21:37:43.124Z,13.50
2018-04-07T21:40:10.688Z,13.30
2018-04-07T21:42:38.227Z,13.10
2018-04-07T21:45:06.588Z,12.80
2018-04-07T21:47:34.906Z,12.70
2018-04-07T21:50:02.470Z,12.70
2018-04-07T21:52:30.034Z,12.50
2018-04-07T21:54:57.572Z,12.40
2018-04-07T21:57:25.914Z,12.30
2018-04-07T21:59:53.462Z,12.20
2018-04-07T22:02:21.081Z,12.20
2018-04-07T22:04:48.672Z,12.20
2018-04-07T22:07:16.238Z,12.00
2018-04-07T22:09:43.816Z,12.00
2018-04-07T22:12:11.367Z,11.90
2018-04-07T22:14:38.927Z,11.90
2018-04-07T22:17:06.474Z,11.90
2018-04-07T22:19:34.077Z,11.80
2018-04-07T22:22:02.396Z,11.60
2018-04-07T22:24:29.944Z,11.60
2018-04-07T22:26:57.507Z,11.70
2018-04-07T22:29:25.077Z,11.60
2018-04-07T22:31:52.655Z,11.50
2018-04-07T22:34:20.236Z,11.50
2018-04-07T22:36:47.789Z,11.50
2018-04-07T22:39:15.396Z,11.50
2018-04-07T22:41:43.726Z,11.20
2018-04-07T22:44:11.264Z,11.20
2018-04-07T22:46:38.833Z,11.20
2018-04-07T22:49:06.379Z,11.20
2018-04-07T22:51:33.943Z,11.10
2018-04-07T22:54:01.491Z,11.00
2018-04-07T22:56:29.076Z,10.90
2018-04-07T22:58:56.662Z,10.80
2018-04-07T23:01:24.211Z,10.80
2018-04-07T23:03:51.776Z,10.70
2018-04-07T23:06:19.321Z,10.70
2018-04-07T23:08:46.886Z,10.70
2018-04-07T23:11:14.445Z,10.60
2018-04-07T23:13:42.015Z,10.60
2018-04-07T23:16:09.564Z,10.50
2018-04-07T23:18:37.125Z,10.40
2018-04-07T23:21:04.684Z,10.40
2018-04-07T23:23:32.252Z,10.30
2018-04-07T23:25:59.800Z,10.30
2018-04-07T23:28:27.364Z,10.30
2018-04-07T23:30:54.912Z,10.20
2018-04-07T23:33:22.452Z,10.10
2018-04-07T23:35:50.016Z,10.10
2018-04-07T23:38:17.550Z,10.00
2018-04-07T23:40:45.881Z,9.90
2018-04-07T23:43:13.424Z,9.90
2018-04-07T23:45:40.982Z,9.90
2018-04-07T23:48:08.539Z,9.90
2018-04-07T23:50:36.102Z,10.00
2018-04-07T23:53:03.649Z,10.20
2018-04-07T23:55:31.219Z,10.20
2018-04-07T23:57:58.760Z,10.20
